Time;durP1;ratioP1;P1;durP2;ratioP2;P2;SDS_P1;SDS_P2;PMS_P1;PMS_P2;Temp;Humidity;BMP_temperature;BMP_pressure;BME280_temperature;BME280_humidity;BME280_pressure;Samples;Min_cycle;Max_cycle;Signal;HPM_P1;HPM_P2
2022/09/12 00:02:23;;;;;;;3.50;2.72;;;13.70;99.90;;;;;;5054982;28;20033;-66
2022/09/12 00:04:49;;;;;;;5.85;3.33;;;13.50;99.90;;;;;;5053688;28;20072;-66
2022/09/12 00:07:14;;;;;;;4.85;2.58;;;13.60;99.90;;;;;;5053495;28;20115;-66
2022/09/12 00:09:40;;;;;;;2.78;2.33;;;13.80;99.90;;;;;;5054693;28;20554;-66
2022/09/12 00:12:07;;;;;;;2.90;2.45;;;13.70;99.90;;;;;;5054592;28;20043;-66
2022/09/12 00:14:33;;;;;;;3.08;2.60;;;13.80;99.90;;;;;;5053415;28;20083;-66
2022/09/12 00:16:59;;;;;;;2.72;1.85;;;13.50;99.90;;;;;;5054994;28;20045;-66
2022/09/12 00:19:26;;;;;;;2.80;2.50;;;13.50;99.90;;;;;;5048703;28;20041;-66
2022/09/12 00:21:52;;;;;;;3.60;2.88;;;13.30;99.90;;;;;;5051219;28;20402;-66
2022/09/12 00:24:17;;;;;;;4.15;2.85;;;13.50;99.90;;;;;;5054357;28;20044;-66
2022/09/12 00:26:43;;;;;;;2.45;2.10;;;13.70;99.90;;;;;;5054744;28;20041;-66
2022/09/12 00:29:17;;;;;;;2.33;2.13;;;13.30;99.90;;;;;;5054662;28;20035;-66
2022/09/12 00:31:43;;;;;;;3.30;2.55;;;13.40;99.90;;;;;;5054486;28;20040;-66
2022/09/12 00:34:09;;;;;;;2.80;2.50;;;13.30;99.90;;;;;;5053190;28;20486;-66
2022/09/12 00:36:35;;;;;;;3.90;3.50;;;13.40;99.90;;;;;;5054343;28;20093;-66
2022/09/12 00:39:02;;;;;;;2.85;2.53;;;13.50;99.90;;;;;;5054206;28;20041;-66
2022/09/12 00:41:37;;;;;;;5.43;3.30;;;13.50;99.90;;;;;;5054326;28;20047;-66
2022/09/12 00:44:23;;;;;;;3.80;2.60;;;13.50;99.90;;;;;;5049498;28;20112;-66
2022/09/12 00:46:53;;;;;;;2.92;2.53;;;13.40;99.90;;;;;;5047608;28;20041;-66
2022/09/12 00:49:28;;;;;;;5.95;2.78;;;13.10;99.90;;;;;;5052205;28;20059;-66
2022/09/12 00:52:02;;;;;;;2.50;2.30;;;13.20;99.90;;;;;;5047342;28;20487;-66
2022/09/12 00:54:34;;;;;;;2.40;2.13;;;13.20;99.90;;;;;;5040553;28;20051;-66
2022/09/12 00:57:02;;;;;;;2.40;2.20;;;12.90;99.90;;;;;;5052781;28;20048;-66
2022/09/12 00:59:34;;;;;;;1.83;1.73;;;13.10;99.90;;;;;;5052523;28;20052;-66
2022/09/12 01:01:59;;;;;;;3.03;2.40;;;12.90;99.90;;;;;;5052403;28;20552;-66
2022/09/12 01:04:27;;;;;;;2.33;2.13;;;13.00;99.90;;;;;;5053975;28;20155;-66
2022/09/12 01:06:55;;;;;;;3.20;2.90;;;13.20;99.90;;;;;;5053715;28;20029;-66
2022/09/12 01:09:22;;;;;;;4.03;3.17;;;13.10;99.90;;;;;;5039444;28;20483;-66
2022/09/12 01:11:49;;;;;;;5.82;4.10;;;13.10;99.90;;;;;;5053567;28;20517;-66
2022/09/12 01:14:16;;;;;;;7.07;4.72;;;13.10;99.90;;;;;;5052214;28;20048;-66
2022/09/12 01:16:43;;;;;;;5.03;4.53;;;13.20;99.90;;;;;;5053534;28;20037;-66
2022/09/12 01:19:35;;;;;;;6.28;5.68;;;13.20;99.90;;;;;;5052337;28;20125;-66
2022/09/12 01:22:34;;;;;;;5.22;4.32;;;13.10;99.90;;;;;;5041627;28;20388;-66
2022/09/12 01:25:28;;;;;;;4.78;4.20;;;13.10;99.90;;;;;;5053542;28;20033;-66
2022/09/12 01:28:22;;;;;;;6.78;4.60;;;13.30;99.90;;;;;;5051963;28;20087;-66
2022/09/12 01:31:02;;;;;;;5.95;5.32;;;13.30;99.90;;;;;;5052090;28;20049;-66
2022/09/12 01:33:59;;;;;;;5.97;5.38;;;13.30;99.90;;;;;;5053475;28;20445;-66
2022/09/12 01:36:30;;;;;;;7.07;6.18;;;13.10;99.90;;;;;;5039348;28;20042;-66
2022/09/12 01:39:03;;;;;;;9.15;6.05;;;13.40;99.90;;;;;;5045131;28;20142;-66
2022/09/12 01:41:48;;;;;;;7.40;6.55;;;13.10;99.90;;;;;;5045931;28;20406;-66
2022/09/12 01:44:33;;;;;;;8.15;6.85;;;13.40;99.90;;;;;;5041053;28;20398;-66
2022/09/12 01:47:15;;;;;;;7.75;6.70;;;13.40;99.90;;;;;;5052120;28;20530;-66
2022/09/12 01:49:54;;;;;;;7.80;4.40;;;13.40;99.90;;;;;;5051768;28;20048;-66
2022/09/12 01:52:31;;;;;;;5.18;3.97;;;13.40;99.90;;;;;;5051472;28;20066;-66
2022/09/12 01:55:00;;;;;;;6.70;4.10;;;13.20;99.90;;;;;;5053380;28;20436;-66
2022/09/12 01:57:42;;;;;;;10.02;6.40;;;13.30;99.90;;;;;;5051613;28;20048;-66
2022/09/12 02:00:10;;;;;;;8.30;6.97;;;13.20;99.90;;;;;;5052703;28;20546;-66
2022/09/12 02:02:41;;;;;;;10.57;7.82;;;13.10;99.90;;;;;;5038661;28;20041;-66
2022/09/12 02:05:09;;;;;;;13.30;10.07;;;13.20;99.90;;;;;;5051736;28;20064;-66
2022/09/12 02:07:56;;;;;;;22.42;16.23;;;13.40;99.90;;;;;;5055621;28;20045;-66
2022/09/12 02:10:26;;;;;;;22.75;17.55;;;13.40;99.90;;;;;;5045469;28;20045;-66
2022/09/12 02:12:59;;;;;;;23.83;17.67;;;13.50;99.90;;;;;;5039321;28;20060;-66
2022/09/12 02:15:32;;;;;;;24.65;18.40;;;13.60;99.90;;;;;;5039295;28;20052;-66
2022/09/12 02:18:03;;;;;;;29.42;19.88;;;13.70;99.90;;;;;;5039516;28;20041;-66
2022/09/12 02:20:32;;;;;;;27.25;20.92;;;13.50;99.90;;;;;;5035052;28;20045;-65
2022/09/12 02:22:59;;;;;;;29.38;21.33;;;13.70;99.90;;;;;;5048302;28;20053;-66
2022/09/12 02:25:28;;;;;;;29.58;20.30;;;13.60;99.90;;;;;;5043249;28;20662;-66
2022/09/12 02:28:07;;;;;;;28.23;21.25;;;13.70;99.90;;;;;;5052352;28;20037;-66
2022/09/12 02:31:08;;;;;;;27.33;20.10;;;13.70;99.90;;;;;;5051643;28;20399;-65
2022/09/12 02:33:42;;;;;;;30.52;21.88;;;13.80;99.90;;;;;;5049448;28;20495;-66
2022/09/12 02:36:21;;;;;;;29.88;21.45;;;13.80;99.90;;;;;;5047425;28;20053;-66
2022/09/12 02:38:47;;;;;;;28.55;20.65;;;13.70;99.90;;;;;;5042618;28;20112;-66
2022/09/12 02:41:18;;;;;;;28.35;19.85;;;13.80;99.90;;;;;;5038576;28;20091;-65
2022/09/12 02:43:44;;;;;;;27.35;20.33;;;;;;;;;;5055151;28;20044;-67
2022/09/12 02:46:17;;;;;;;28.02;20.00;;;13.50;99.90;;;;;;5056367;28;20037;-66
2022/09/12 02:48:43;;;;;;;29.48;21.20;;;13.70;99.90;;;;;;5055277;28;20033;-66
2022/09/12 02:51:10;;;;;;;32.45;21.40;;;13.60;99.90;;;;;;5062016;28;20547;-66
2022/09/12 02:53:37;;;;;;;26.13;19.67;;;13.60;99.90;;;;;;5050902;28;20174;-66
2022/09/12 02:56:07;;;;;;;32.83;22.85;;;13.40;99.90;;;;;;5055042;28;20122;-66
2022/09/12 02:58:33;;;;;;;35.13;23.02;;;13.60;99.90;;;;;;5056186;28;20159;-66
2022/09/12 03:00:59;;;;;;;35.70;25.23;;;;;;;;;;5055784;28;20064;-66
2022/09/12 03:03:41;;;;;;;33.78;23.42;;;13.30;99.90;;;;;;5054768;28;20407;-65
2022/09/12 03:06:19;;;;;;;35.75;24.02;;;13.40;99.90;;;;;;5051578;28;20045;-65
2022/09/12 03:09:00;;;;;;;33.03;23.73;;;13.30;99.90;;;;;;5056140;28;20391;-66
2022/09/12 03:11:26;;;;;;;36.15;24.15;;;;;;;;;;5055845;28;20045;-66
2022/09/12 03:14:23;;;;;;;31.90;23.73;;;13.40;99.90;;;;;;5056092;28;20167;-66
2022/09/12 03:17:22;;;;;;;37.15;24.08;;;13.50;99.90;;;;;;5047218;28;20057;-66
2022/09/12 03:20:10;;;;;;;38.70;25.05;;;13.70;99.90;;;;;;5043811;28;20080;-66
2022/09/12 03:22:48;;;;;;;38.85;24.88;;;13.60;99.90;;;;;;5055481;28;20491;-66
2022/09/12 03:25:19;;;;;;;40.45;25.92;;;13.70;99.90;;;;;;5044438;28;20049;-66
2022/09/12 03:28:07;;;;;;;35.65;25.05;;;13.60;99.90;;;;;;5051658;28;20044;-65
2022/09/12 03:30:46;;;;;;;38.05;25.00;;;13.60;99.90;;;;;;5051836;28;20084;-66
2022/09/12 03:33:21;;;;;;;41.03;25.75;;;13.80;99.90;;;;;;5053932;28;20118;-66
2022/09/12 03:35:48;;;;;;;40.63;25.05;;;13.60;99.90;;;;;;5044681;28;20045;-66
2022/09/12 03:38:14;;;;;;;36.58;25.50;;;13.70;99.90;;;;;;5055364;28;20048;-66
2022/09/12 03:40:39;;;;;;;38.08;25.60;;;13.40;99.90;;;;;;5055395;28;20087;-65
2022/09/12 03:43:06;;;;;;;41.17;26.70;;;13.60;99.90;;;;;;5054038;28;20294;-65
2022/09/12 03:45:32;;;;;;;38.58;26.00;;;13.70;99.90;;;;;;5054698;28;20044;-65
2022/09/12 03:47:58;;;;;;;37.47;25.67;;;13.40;99.90;;;;;;5059260;28;20053;-65
2022/09/12 03:50:24;;;;;;;36.35;25.48;;;;;;;;;;5052931;28;20033;-67
2022/09/12 03:52:50;;;;;;;44.33;26.52;;;13.50;99.90;;;;;;5053871;28;20041;-65
2022/09/12 03:55:16;;;;;;;43.47;26.48;;;13.70;99.90;;;;;;5055153;28;20060;-66
2022/09/12 03:57:42;;;;;;;40.67;25.75;;;13.60;99.90;;;;;;5055263;28;20047;-65
2022/09/12 04:00:08;;;;;;;43.65;27.08;;;13.50;99.90;;;;;;5054856;28;20068;-65
2022/09/12 04:02:34;;;;;;;43.80;26.90;;;13.60;99.90;;;;;;5023092;28;20048;-65
2022/09/12 04:05:00;;;;;;;41.47;26.77;;;13.40;99.90;;;;;;5054970;28;20032;-66
2022/09/12 04:07:26;;;;;;;46.22;28.48;;;13.30;99.90;;;;;;5060499;28;20049;-65
2022/09/12 04:09:52;;;;;;;42.78;27.15;;;13.40;99.90;;;;;;5053704;28;20107;-65
2022/09/12 04:12:21;;;;;;;46.22;29.50;;;13.50;99.90;;;;;;5054550;28;20831;-66
2022/09/12 04:14:46;;;;;;;45.60;28.35;;;13.50;99.90;;;;;;5062371;28;20049;-65
2022/09/12 04:17:13;;;;;;;49.72;30.23;;;13.50;99.90;;;;;;5047624;28;20045;-66
2022/09/12 04:19:38;;;;;;;48.13;28.58;;;13.60;99.90;;;;;;5054691;28;20040;-66
2022/09/12 04:22:04;;;;;;;47.05;30.10;;;13.40;99.90;;;;;;5054540;28;20048;-65
2022/09/12 04:24:30;;;;;;;50.05;30.85;;;13.50;99.90;;;;;;5054575;28;20055;-65
2022/09/12 04:26:56;;;;;;;48.08;29.45;;;13.50;99.90;;;;;;5054725;28;20062;-66
2022/09/12 04:29:21;;;;;;;50.28;31.65;;;13.50;99.90;;;;;;5054655;28;20037;-65
2022/09/12 04:31:48;;;;;;;48.97;29.48;;;;;;;;;;5054519;28;20486;-66
2022/09/12 04:34:14;;;;;;;49.83;31.42;;;13.50;99.90;;;;;;5053097;28;20056;-66
2022/09/12 04:36:40;;;;;;;51.80;31.48;;;13.30;99.90;;;;;;5054392;28;20127;-66
2022/09/12 04:39:06;;;;;;;50.00;31.85;;;13.50;99.90;;;;;;5054347;28;20502;-66
2022/09/12 04:41:36;;;;;;;47.35;29.80;;;13.40;99.90;;;;;;5053881;28;20060;-66
2022/09/12 04:44:13;;;;;;;51.47;31.08;;;13.20;99.90;;;;;;5054536;28;20040;-66
2022/09/12 04:46:45;;;;;;;49.05;31.17;;;13.50;99.90;;;;;;5054161;28;20079;-65
2022/09/12 04:49:12;;;;;;;48.30;30.05;;;13.50;99.90;;;;;;5054486;28;20060;-65
2022/09/12 04:51:40;;;;;;;49.75;30.23;;;13.60;99.90;;;;;;5052671;28;20044;-65
2022/09/12 04:54:09;;;;;;;47.08;29.23;;;13.60;99.90;;;;;;5053828;28;20037;-66
2022/09/12 04:56:40;;;;;;;50.55;29.65;;;13.70;99.90;;;;;;5054092;28;20041;-65
2022/09/12 04:59:07;;;;;;;46.92;29.67;;;13.60;99.90;;;;;;5054063;28;20051;-65
2022/09/12 05:01:33;;;;;;;49.55;29.85;;;13.40;99.90;;;;;;5053691;28;20057;-65
2022/09/12 05:03:59;;;;;;;46.80;30.08;;;13.50;99.90;;;;;;5051768;28;20541;-65
2022/09/12 05:06:31;;;;;;;49.85;31.63;;;13.60;99.90;;;;;;5043349;28;20140;-66
2022/09/12 05:08:57;;;;;;;48.20;30.25;;;13.60;99.90;;;;;;5051711;28;20025;-65
2022/09/12 05:11:26;;;;;;;46.00;29.20;;;13.70;99.90;;;;;;5042016;28;20502;-66
2022/09/12 05:13:52;;;;;;;48.90;30.48;;;13.60;99.90;;;;;;5053853;28;20047;-66
2022/09/12 05:16:19;;;;;;;47.67;28.25;;;13.60;99.90;;;;;;5053611;28;20398;-65
2022/09/12 05:18:45;;;;;;;46.88;29.63;;;13.70;99.90;;;;;;5053668;28;20114;-65
2022/09/12 05:21:13;;;;;;;49.80;30.08;;;13.60;99.90;;;;;;5053120;28;20052;-65
2022/09/12 05:23:39;;;;;;;49.60;30.08;;;13.80;99.90;;;;;;5057872;28;20387;-66
2022/09/12 05:26:05;;;;;;;50.90;30.77;;;13.70;99.90;;;;;;5049614;28;20037;-66
2022/09/12 05:28:36;;;;;;;49.55;31.80;;;13.60;99.90;;;;;;5052212;28;20399;-66
2022/09/12 05:31:11;;;;;;;53.40;30.52;;;13.60;99.90;;;;;;5053359;28;20036;-66
2022/09/12 05:33:37;;;;;;;50.78;29.10;;;13.70;99.90;;;;;;5052071;28;20040;-66
2022/09/12 05:36:06;;;;;;;48.13;29.23;;;13.60;99.90;;;;;;5057238;28;20041;-66
2022/09/12 05:38:34;;;;;;;49.55;31.65;;;13.70;99.90;;;;;;5051195;28;20371;-66
2022/09/12 05:41:05;;;;;;;51.58;32.35;;;13.60;99.90;;;;;;5052898;28;20498;-66
2022/09/12 05:43:32;;;;;;;50.63;31.02;;;13.80;99.90;;;;;;5052112;28;20066;-66
2022/09/12 05:46:34;;;;;;;60.58;33.05;;;13.70;99.90;;;;;;5051816;28;20052;-66
2022/09/12 05:49:05;;;;;;;52.58;33.17;;;13.70;99.90;;;;;;5007154;28;20048;-66
2022/09/12 05:51:33;;;;;;;59.22;31.30;;;13.70;99.90;;;;;;5035039;28;20049;-66
2022/09/12 05:54:02;;;;;;;56.67;34.05;;;13.70;99.90;;;;;;5052922;28;20098;-66
2022/09/12 05:56:30;;;;;;;51.38;31.80;;;13.80;99.90;;;;;;5050915;28;20037;-65
2022/09/12 05:59:01;;;;;;;53.65;31.65;;;13.90;99.90;;;;;;5052004;28;20045;-66
2022/09/12 06:01:29;;;;;;;53.47;32.13;;;14.00;99.90;;;;;;5052660;28;20053;-66
2022/09/12 06:03:56;;;;;;;57.05;31.42;;;14.00;99.90;;;;;;5052942;28;20029;-66
2022/09/12 06:06:23;;;;;;;50.25;30.13;;;14.00;99.90;;;;;;5055125;28;20094;-65
2022/09/12 06:08:51;;;;;;;52.33;30.23;;;13.90;99.90;;;;;;5057366;28;20033;-66
2022/09/12 06:11:20;;;;;;;52.35;30.50;;;14.00;99.90;;;;;;5052956;28;20032;-65
2022/09/12 06:13:46;;;;;;;51.60;30.67;;;13.80;99.90;;;;;;5052728;28;20852;-66
2022/09/12 06:16:15;;;;;;;55.13;30.35;;;13.80;99.90;;;;;;5038793;28;20033;-65
2022/09/12 06:18:45;;;;;;;54.35;30.63;;;14.00;99.90;;;;;;5052813;28;20040;-66
2022/09/12 06:21:12;;;;;;;55.88;32.17;;;13.80;99.90;;;;;;5024341;28;20399;-66
2022/09/12 06:23:39;;;;;;;54.40;33.10;;;14.00;99.90;;;;;;5050871;28;20542;-66
2022/09/12 06:26:07;;;;;;;56.58;32.05;;;13.80;99.90;;;;;;5051826;28;20548;-66
2022/09/12 06:28:35;;;;;;;58.28;33.05;;;13.90;99.90;;;;;;5052025;28;20086;-65
2022/09/12 06:31:05;;;;;;;57.97;32.25;;;13.90;99.90;;;;;;5047569;28;20041;-66
2022/09/12 06:33:33;;;;;;;61.15;33.50;;;14.00;99.90;;;;;;5050697;28;20520;-66
2022/09/12 06:36:10;;;;;;;65.80;32.53;;;14.10;99.90;;;;;;5052387;28;20025;-66
2022/09/12 06:38:37;;;;;;;63.05;34.15;;;14.00;99.90;;;;;;5050799;28;20041;-65
2022/09/12 06:41:05;;;;;;;64.15;34.03;;;14.00;99.90;;;;;;5049227;28;20487;-66
2022/09/12 06:43:31;;;;;;;58.95;33.88;;;;;;;;;;5053359;28;21339;-66
2022/09/12 06:45:57;;;;;;;65.45;34.78;;;14.10;99.90;;;;;;5034328;28;20124;-66
2022/09/12 06:48:22;;;;;;;64.60;34.08;;;14.20;99.90;;;;;;5035371;28;20496;-65
2022/09/12 06:51:06;;;;;;;66.30;35.03;;;14.10;99.90;;;;;;5040653;28;20041;-67
2022/09/12 06:53:33;;;;;;;56.92;32.58;;;14.10;99.90;;;;;;5042691;28;20041;-66
2022/09/12 06:56:18;;;;;;;68.35;36.28;;;14.10;99.90;;;;;;5038081;28;20129;-65
2022/09/12 06:58:45;;;;;;;66.47;35.53;;;14.20;99.90;;;;;;5053148;28;20080;-65
2022/09/12 07:01:23;;;;;;;72.30;37.08;;;14.20;99.90;;;;;;5043759;28;20572;-67
2022/09/12 07:03:51;;;;;;;76.15;38.58;;;14.20;99.90;;;;;;5034258;28;20123;-65
2022/09/12 07:06:19;;;;;;;70.80;35.83;;;14.30;99.90;;;;;;5043940;28;20115;-65
2022/09/12 07:08:45;;;;;;;69.32;38.10;;;14.40;99.90;;;;;;5048548;28;20065;-65
2022/09/12 07:11:15;;;;;;;79.07;38.45;;;14.20;99.90;;;;;;5051375;28;20495;-67
2022/09/12 07:13:43;;;;;;;78.80;38.35;;;14.40;99.90;;;;;;5052144;28;20476;-67
2022/09/12 07:16:09;;;;;;;77.40;39.03;;;14.50;99.90;;;;;;5051971;28;20521;-67
2022/09/12 07:18:38;;;;;;;65.40;37.72;;;14.70;99.90;;;;;;5050723;28;20049;-67
2022/09/12 07:21:08;;;;;;;71.25;39.08;;;14.40;99.90;;;;;;5052034;28;20499;-67
2022/09/12 07:23:34;;;;;;;72.60;38.97;;;14.30;99.90;;;;;;5055017;28;20032;-67
2022/09/12 07:26:00;;;;;;;82.13;41.90;;;14.60;99.90;;;;;;5055495;28;20029;-67
2022/09/12 07:28:27;;;;;;;82.07;41.45;;;14.60;99.90;;;;;;5071001;28;20029;-67
2022/09/12 07:30:53;;;;;;;79.43;41.90;;;14.70;99.90;;;;;;5067492;28;20597;-67
2022/09/12 07:33:20;;;;;;;78.20;40.47;;;14.60;99.90;;;;;;5054114;28;20044;-67
2022/09/12 07:35:46;;;;;;;76.97;40.30;;;14.80;99.90;;;;;;5053712;28;20075;-67
2022/09/12 07:38:11;;;;;;;83.50;42.53;;;14.70;99.90;;;;;;5055248;28;20117;-67
2022/09/12 07:40:37;;;;;;;90.07;44.50;;;14.70;99.90;;;;;;5054283;28;20037;-67
2022/09/12 07:43:02;;;;;;;80.65;42.47;;;14.80;99.90;;;;;;5055448;28;20029;-67
2022/09/12 07:45:28;;;;;;;81.75;42.33;;;14.90;99.90;;;;;;5054997;28;20090;-67
2022/09/12 07:47:54;;;;;;;82.10;41.55;;;;;;;;;;5053669;28;20045;-67
2022/09/12 07:50:20;;;;;;;83.13;42.25;;;14.80;99.90;;;;;;5053810;28;20079;-67
2022/09/12 07:52:45;;;;;;;81.60;42.65;;;15.00;99.90;;;;;;5054172;28;20479;-67
2022/09/12 07:55:11;;;;;;;87.95;43.15;;;15.10;99.90;;;;;;5053580;28;20503;-67
2022/09/12 07:57:37;;;;;;;85.95;44.83;;;15.10;99.90;;;;;;5055011;28;20045;-67
2022/09/12 08:00:04;;;;;;;84.05;44.65;;;15.90;99.90;;;;;;5053937;28;20071;-67
2022/09/12 08:02:30;;;;;;;78.88;42.30;;;15.20;99.90;;;;;;5053307;28;20053;-67
2022/09/12 08:04:56;;;;;;;84.63;45.72;;;15.30;99.90;;;;;;5053485;28;20047;-68
2022/09/12 08:07:21;;;;;;;88.95;44.83;;;15.20;99.90;;;;;;5053334;28;20041;-67
2022/09/12 08:09:47;;;;;;;85.78;43.90;;;15.50;99.90;;;;;;5054561;28;20124;-67
2022/09/12 08:12:15;;;;;;;86.40;45.70;;;15.40;99.90;;;;;;5051863;28;20041;-67
2022/09/12 08:14:40;;;;;;;81.85;43.17;;;15.60;99.90;;;;;;5037603;28;20073;-67
2022/09/12 08:17:06;;;;;;;79.00;42.10;;;15.90;99.90;;;;;;5038268;28;20053;-67
2022/09/12 08:19:31;;;;;;;88.00;45.35;;;15.80;99.90;;;;;;5039856;28;20076;-67
2022/09/12 08:21:57;;;;;;;79.00;43.60;;;;;;;;;;5044867;28;20071;-67
2022/09/12 08:24:23;;;;;;;83.00;43.97;;;16.20;99.90;;;;;;5037294;28;20044;-67
2022/09/12 08:26:50;;;;;;;84.50;45.42;;;16.20;99.90;;;;;;5048899;28;20153;-67
2022/09/12 08:29:16;;;;;;;81.25;45.97;;;16.30;99.90;;;;;;5054323;28;20536;-67
2022/09/12 08:31:41;;;;;;;73.20;40.58;;;16.30;99.90;;;;;;5052675;28;20479;-67
2022/09/12 08:34:07;;;;;;;81.15;45.15;;;16.50;99.90;;;;;;5044599;28;20041;-67
2022/09/12 08:36:33;;;;;;;78.82;42.95;;;16.60;99.90;;;;;;5048726;28;20040;-67
2022/09/12 08:39:03;;;;;;;77.30;44.10;;;16.80;99.90;;;;;;5053004;28;20041;-67
2022/09/12 08:41:43;;;;;;;81.57;45.58;;;16.70;99.90;;;;;;5052840;28;20053;-68
2022/09/12 08:44:35;;;;;;;81.07;43.70;;;16.90;99.90;;;;;;5052964;28;20037;-68
2022/09/12 08:47:09;;;;;;;75.07;42.42;;;16.70;99.90;;;;;;5044110;28;20041;-67
2022/09/12 08:50:11;;;;;;;78.75;43.20;;;17.10;99.90;;;;;;5052881;28;20602;-67
2022/09/12 08:52:57;;;;;;;79.97;42.95;;;17.10;99.90;;;;;;5040666;28;20395;-68
2022/09/12 08:55:38;;;;;;;77.55;43.10;;;17.10;99.90;;;;;;5052173;28;20049;-67
2022/09/12 08:58:22;;;;;;;77.13;41.40;;;17.30;99.90;;;;;;5052743;28;20049;-67
2022/09/12 09:00:58;;;;;;;72.78;39.20;;;17.30;99.90;;;;;;5039605;28;20048;-68
2022/09/12 09:03:32;;;;;;;75.22;41.65;;;17.30;99.90;;;;;;5046607;28;20052;-67
2022/09/12 09:06:32;;;;;;;71.78;39.13;;;17.40;99.90;;;;;;5046862;28;20044;-67
2022/09/12 09:09:27;;;;;;;76.60;41.67;;;17.60;99.90;;;;;;5036021;28;20085;-68
2022/09/12 09:12:17;;;;;;;76.43;39.53;;;17.80;99.90;;;;;;5040224;28;20050;-67
2022/09/12 09:15:08;;;;;;;75.88;41.65;;;17.80;99.90;;;;;;5056376;28;20048;-67
2022/09/12 09:17:49;;;;;;;69.78;37.92;;;18.20;99.90;;;;;;5046569;28;20041;-68
2022/09/12 09:20:28;;;;;;;69.85;39.63;;;18.00;99.90;;;;;;5045049;28;20040;-68
2022/09/12 09:23:30;;;;;;;68.38;38.45;;;18.20;99.90;;;;;;5053338;28;20111;-67
2022/09/12 09:26:05;;;;;;;70.55;38.53;;;18.40;99.90;;;;;;5043691;28;20045;-68
2022/09/12 09:28:50;;;;;;;64.88;35.38;;;18.30;99.90;;;;;;5041879;28;20049;-67
2022/09/12 09:31:20;;;;;;;60.10;34.93;;;18.70;99.90;;;;;;5038206;28;20111;-67
2022/09/12 09:33:49;;;;;;;61.17;35.03;;;18.80;99.90;;;;;;5033120;28;20284;-67
2022/09/12 09:36:26;;;;;;;66.68;35.47;;;19.10;99.90;;;;;;5046257;28;20041;-67
2022/09/12 09:39:09;;;;;;;60.55;33.38;;;19.30;99.90;;;;;;5049747;28;20043;-67
2022/09/12 09:41:50;;;;;;;57.47;32.80;;;19.40;99.90;;;;;;5051763;28;20107;-68
2022/09/12 09:44:16;;;;;;;60.25;32.97;;;19.50;99.90;;;;;;5025836;28;20041;-67
2022/09/12 09:46:42;;;;;;;54.85;30.92;;;19.60;99.90;;;;;;5046879;28;20515;-67
2022/09/12 09:49:13;;;;;;;51.10;29.67;;;19.90;99.90;;;;;;5040105;28;20064;-67
2022/09/12 09:51:40;;;;;;;53.08;29.77;;;19.80;99.90;;;;;;5038126;28;20057;-67
2022/09/12 09:54:18;;;;;;;46.97;27.27;;;20.20;99.90;;;;;;5043069;28;20107;-67
2022/09/12 09:56:44;;;;;;;47.92;28.92;;;20.20;99.90;;;;;;5052130;28;20114;-67
2022/09/12 09:59:28;;;;;;;42.42;28.60;;;20.10;99.90;;;;;;5047183;28;20484;-67
2022/09/12 10:02:14;;;;;;;45.63;26.52;;;19.90;99.90;;;;;;5046813;28;20049;-68
2022/09/12 10:04:53;;;;;;;46.65;27.73;;;19.90;99.90;;;;;;5040716;28;20067;-68
2022/09/12 10:07:20;;;;;;;41.10;24.25;;;20.10;99.90;;;;;;5048797;28;20126;-68
2022/09/12 10:10:18;;;;;;;40.78;25.17;;;20.20;99.90;;;;;;5052590;28;20029;-67
2022/09/12 10:12:44;;;;;;;45.60;28.80;;;20.50;99.90;;;;;;5051771;28;20044;-68
2022/09/12 10:15:16;;;;;;;45.40;29.98;;;20.30;99.90;;;;;;5041600;28;20048;-67
2022/09/12 10:17:44;;;;;;;46.55;27.30;;;20.60;99.90;;;;;;5045661;28;20125;-67
2022/09/12 10:20:30;;;;;;;38.03;25.13;;;20.70;99.90;;;;;;5043269;28;20487;-67
2022/09/12 10:22:58;;;;;;;39.63;25.20;;;20.60;99.90;;;;;;5051089;28;20507;-67
2022/09/12 10:25:25;;;;;;;45.97;26.83;;;20.60;99.90;;;;;;5052463;28;20029;-67
2022/09/12 10:27:57;;;;;;;44.72;25.80;;;20.60;99.90;;;;;;5037359;28;20044;-68
2022/09/12 10:30:24;;;;;;;39.53;25.40;;;20.60;99.90;;;;;;5043706;28;20399;-66
2022/09/12 10:32:52;;;;;;;37.63;23.80;;;20.80;99.90;;;;;;5052475;28;20045;-68
2022/09/12 10:35:24;;;;;;;40.22;26.52;;;20.60;99.90;;;;;;5038392;28;20449;-67
2022/09/12 10:38:01;;;;;;;39.90;24.92;;;21.00;99.90;;;;;;5052077;28;20039;-67
2022/09/12 10:40:38;;;;;;;38.58;22.80;;;20.70;99.90;;;;;;5051290;28;20124;-67
2022/09/12 10:43:36;;;;;;;33.00;20.10;;;20.80;99.90;;;;;;5039243;28;20045;-68
2022/09/12 10:46:26;;;;;;;34.88;22.33;;;20.60;99.90;;;;;;5040282;28;20049;-67
2022/09/12 10:49:11;;;;;;;24.20;15.38;;;20.90;99.90;;;;;;5046344;28;20041;-67
2022/09/12 10:51:37;;;;;;;26.00;16.90;;;21.00;99.90;;;;;;5061794;28;20399;-68
2022/09/12 10:54:07;;;;;;;26.00;16.25;;;21.10;99.90;;;;;;5037054;28;20033;-67
2022/09/12 10:56:53;;;;;;;29.27;16.95;;;22.20;99.90;;;;;;5047194;28;20045;-68
2022/09/12 10:59:37;;;;;;;20.48;13.63;;;21.10;99.90;;;;;;5047317;28;20446;-68
2022/09/12 11:02:29;;;;;;;23.70;13.32;;;21.00;99.90;;;;;;5054183;28;20128;-67
2022/09/12 11:05:04;;;;;;;22.10;13.88;;;21.20;99.90;;;;;;5053370;28;20083;-67
2022/09/12 11:07:45;;;;;;;22.45;13.25;;;21.20;99.90;;;;;;5055982;28;20044;-67
2022/09/12 11:10:24;;;;;;;22.80;13.35;;;21.10;99.90;;;;;;5055162;28;20065;-68
2022/09/12 11:13:08;;;;;;;22.83;14.30;;;21.10;99.90;;;;;;5071545;28;20110;-67
2022/09/12 11:15:51;;;;;;;21.63;13.60;;;21.40;99.90;;;;;;5055750;28;20045;-68
2022/09/12 11:18:45;;;;;;;22.67;13.80;;;21.70;99.90;;;;;;5045912;28;20049;-68
2022/09/12 11:21:26;;;;;;;18.02;13.05;;;21.40;99.90;;;;;;5055482;28;20085;-68
2022/09/12 11:24:14;;;;;;;21.77;10.98;;;21.20;99.90;;;;;;5054577;28;20045;-67
2022/09/12 11:26:54;;;;;;;13.05;7.97;;;21.20;99.90;;;;;;5053852;28;20041;-68
2022/09/12 11:29:49;;;;;;;9.70;5.75;;;21.60;99.90;;;;;;5054267;28;20095;-68
2022/09/12 11:32:46;;;;;;;10.55;6.75;;;21.20;99.90;;;;;;5043683;28;20072;-68
2022/09/12 11:35:23;;;;;;;11.25;6.82;;;21.60;99.90;;;;;;5053931;28;20048;-68
2022/09/12 11:38:13;;;;;;;15.63;9.15;;;21.60;99.90;;;;;;5053805;28;20080;-68
2022/09/12 11:41:04;;;;;;;21.80;11.75;;;21.60;99.90;;;;;;5054093;28;20056;-67
2022/09/12 11:43:56;;;;;;;17.77;11.32;;;21.70;99.90;;;;;;5051964;28;20045;-68
2022/09/12 11:46:35;;;;;;;20.08;11.80;;;22.70;99.90;;;;;;5047886;28;20047;-68
2022/09/12 11:49:08;;;;;;;19.55;12.25;;;21.80;99.90;;;;;;5051443;28;20553;-68
2022/09/12 11:52:00;;;;;;;23.90;14.52;;;21.90;99.90;;;;;;5055257;28;20072;-68
2022/09/12 11:54:41;;;;;;;18.38;11.65;;;21.90;99.90;;;;;;5054038;28;20049;-68
2022/09/12 11:57:24;;;;;;;18.80;10.50;;;22.00;99.90;;;;;;5053681;28;20126;-68
2022/09/12 12:00:06;;;;;;;18.38;11.80;;;22.00;99.90;;;;;;5044558;28;20048;-65
2022/09/12 12:02:54;;;;;;;15.00;9.68;;;21.90;99.90;;;;;;5053729;28;20044;-66
2022/09/12 12:05:32;;;;;;;18.35;10.70;;;22.10;99.90;;;;;;5053052;28;20052;-65
2022/09/12 12:08:03;;;;;;;16.80;11.15;;;21.90;99.90;;;;;;5049087;28;20045;-65
2022/09/12 12:10:28;;;;;;;17.85;10.15;;;21.90;99.90;;;;;;5045870;28;20052;-66
2022/09/12 12:12:56;;;;;;;15.73;10.30;;;22.20;99.90;;;;;;5050204;28;20037;-66
2022/09/12 12:15:24;;;;;;;13.45;9.38;;;22.00;99.90;;;;;;5046870;28;20047;-65
2022/09/12 12:18:02;;;;;;;15.65;9.50;;;23.30;99.90;;;;;;5052334;28;20045;-65
2022/09/12 12:20:28;;;;;;;16.58;10.65;;;22.20;99.90;;;;;;5050724;28;20048;-65
2022/09/12 12:22:54;;;;;;;18.60;11.50;;;22.00;99.90;;;;;;5052412;28;20041;-65
2022/09/12 12:25:37;;;;;;;16.80;9.93;;;22.00;99.90;;;;;;5054452;28;20632;-65
2022/09/12 12:28:05;;;;;;;17.80;10.98;;;22.10;99.90;;;;;;5054092;28;20116;-65
2022/09/12 12:30:30;;;;;;;16.25;11.48;;;22.00;99.90;;;;;;5046793;28;20041;-63
2022/09/12 12:33:11;;;;;;;14.95;10.23;;;22.00;99.90;;;;;;5033516;28;20133;-65
2022/09/12 12:35:41;;;;;;;19.88;11.88;;;21.90;99.90;;;;;;5042321;28;20045;-65
2022/09/12 12:38:36;;;;;;;19.05;11.60;;;22.10;99.90;;;;;;5069820;28;20486;-65
2022/09/12 12:41:16;;;;;;;18.42;10.60;;;22.40;99.90;;;;;;5054343;28;20045;-64
2022/09/12 12:43:55;;;;;;;18.13;11.20;;;22.20;99.90;;;;;;5040221;28;20120;-64
2022/09/12 12:46:28;;;;;;;16.65;10.63;;;22.20;99.90;;;;;;5054302;28;20037;-65
2022/09/12 12:49:08;;;;;;;17.48;11.18;;;22.20;99.90;;;;;;5052981;28;20494;-64
2022/09/12 12:51:52;;;;;;;21.48;12.18;;;22.40;99.90;;;;;;5039934;28;20042;-65
2022/09/12 12:54:32;;;;;;;17.80;10.52;;;22.30;99.90;;;;;;5036729;28;20499;-65
2022/09/12 12:57:16;;;;;;;13.65;8.65;;;22.30;99.90;;;;;;5049565;28;20059;-65
2022/09/12 12:59:47;;;;;;;13.10;7.88;;;22.50;99.90;;;;;;5052693;28;20041;-64
2022/09/12 13:02:33;;;;;;;6.88;5.10;;;22.00;99.90;;;;;;5067681;28;20465;-62
2022/09/12 13:05:01;;;;;;;8.82;5.70;;;22.40;99.90;;;;;;5053567;28;20072;-64